Terminal Aerodrome Forecast
Issued by NWS

Home | Current Version | Previous Version | Text Only | Print | Product List | Glossary On
Versions: 1 2 3 4 5 6 7 8 9 10 11 12 13 14 15 16 17
496
FTUS41 KGYX 211720
TAFPSM
TAF
KPSM 211720Z 2118/2218 VRB04KT P6SM BKN250
     FM220700 20005KT P6SM OVC050
     FM221500 27006KT P6SM BKN250=

USA.gov is the U.S. government's official web portal to all federal, state and local government web resources and services.